sensor_id;sensor_type;location;lat;lon;timestamp;pressure;altitude;pressure_sealevel;temperature;humidity
48015;BME280;33780;51.034;7.120;2023-03-14T00:00:13;98382.31;;;13.11;64.30
48015;BME280;33780;51.034;7.120;2023-03-14T00:02:39;98375.25;;;13.10;64.51
48015;BME280;33780;51.034;7.120;2023-03-14T00:05:05;98372.56;;;13.10;64.69
48015;BME280;33780;51.034;7.120;2023-03-14T00:07:39;98366.38;;;13.09;64.39
48015;BME280;33780;51.034;7.120;2023-03-14T00:10:08;98362.25;;;13.07;64.54
48015;BME280;33780;51.034;7.120;2023-03-14T00:12:34;98356.06;;;13.06;64.14
48015;BME280;33780;51.034;7.120;2023-03-14T00:15:00;98356.06;;;13.06;64.21
48015;BME280;33780;51.034;7.120;2023-03-14T00:17:26;98380.22;;;13.06;64.18
48015;BME280;33780;51.034;7.120;2023-03-14T00:19:52;98396.34;;;13.06;64.41
48015;BME280;33780;51.034;7.120;2023-03-14T00:22:19;98415.97;;;13.07;64.31
48015;BME280;33780;51.034;7.120;2023-03-14T00:24:44;98421.31;;;13.07;63.99
48015;BME280;33780;51.034;7.120;2023-03-14T00:27:09;98421.13;;;13.08;64.10
48015;BME280;33780;51.034;7.120;2023-03-14T00:29:35;98421.13;;;13.08;64.18
48015;BME280;33780;51.034;7.120;2023-03-14T00:32:00;98421.13;;;13.08;63.99
48015;BME280;33780;51.034;7.120;2023-03-14T00:34:29;98416.78;;;13.07;63.84
48015;BME280;33780;51.034;7.120;2023-03-14T00:36:54;98419.25;;;13.09;63.84
48015;BME280;33780;51.034;7.120;2023-03-14T00:39:20;98411.19;;;13.09;63.86
48015;BME280;33780;51.034;7.120;2023-03-14T00:41:45;98402.31;;;13.08;64.07
48015;BME280;33780;51.034;7.120;2023-03-14T00:44:10;98396.75;;;13.10;63.66
48015;BME280;33780;51.034;7.120;2023-03-14T00:46:36;98409.34;;;13.09;63.67
48015;BME280;33780;51.034;7.120;2023-03-14T00:49:01;98401.28;;;13.09;63.51
48015;BME280;33780;51.034;7.120;2023-03-14T00:51:26;98385.19;;;13.09;63.97
48015;BME280;33780;51.034;7.120;2023-03-14T00:53:51;98381.47;;;13.10;63.49
48015;BME280;33780;51.034;7.120;2023-03-14T00:56:17;98387.69;;;13.11;63.82
48015;BME280;33780;51.034;7.120;2023-03-14T00:58:42;98390.38;;;13.11;63.83
48015;BME280;33780;51.034;7.120;2023-03-14T01:01:09;98396.56;;;13.11;63.47
48015;BME280;33780;51.034;7.120;2023-03-14T01:03:35;98387.69;;;13.11;64.03
48015;BME280;33780;51.034;7.120;2023-03-14T01:06:10;98395.53;;;13.12;64.01
48015;BME280;33780;51.034;7.120;2023-03-14T01:08:35;98383.97;;;13.12;64.35
48015;BME280;33780;51.034;7.120;2023-03-14T01:11:08;98378.59;;;13.12;64.51
48015;BME280;33780;51.034;7.120;2023-03-14T01:13:33;98382.31;;;13.11;64.75
48015;BME280;33780;51.034;7.120;2023-03-14T01:16:06;98413.69;;;13.10;64.65
48015;BME280;33780;51.034;7.120;2023-03-14T01:18:33;98426.91;;;13.05;65.51
48015;BME280;33780;51.034;7.120;2023-03-14T01:21:00;98448.59;;;12.97;67.02
48015;BME280;33780;51.034;7.120;2023-03-14T01:23:25;98442.13;;;12.85;67.62
48015;BME280;33780;51.034;7.120;2023-03-14T01:25:50;98439.66;;;12.77;67.38
48015;BME280;33780;51.034;7.120;2023-03-14T01:28:16;98444.97;;;12.70;67.52
48015;BME280;33780;51.034;7.120;2023-03-14T01:30:41;98437.34;;;12.67;68.43
48015;BME280;33780;51.034;7.120;2023-03-14T01:33:06;98446.19;;;12.61;68.77
48015;BME280;33780;51.034;7.120;2023-03-14T01:35:32;98437.69;;;12.51;68.65
48015;BME280;33780;51.034;7.120;2023-03-14T01:37:57;98424.06;;;12.46;68.61
48015;BME280;33780;51.034;7.120;2023-03-14T01:40:22;98419.28;;;12.41;68.85
48015;BME280;33780;51.034;7.120;2023-03-14T01:42:55;98420.91;;;12.35;68.94
48015;BME280;33780;51.034;7.120;2023-03-14T01:54:19;98405.81;;;12.28;69.80
48015;BME280;33780;51.034;7.120;2023-03-14T01:56:50;98402.50;;;12.26;69.75
48015;BME280;33780;51.034;7.120;2023-03-14T01:59:17;98396.31;;;12.25;69.88
48015;BME280;33780;51.034;7.120;2023-03-14T02:01:45;98401.88;;;12.24;69.92
48015;BME280;33780;51.034;7.120;2023-03-14T02:04:11;98409.94;;;12.24;70.17
48015;BME280;33780;51.034;7.120;2023-03-14T02:06:55;98402.72;;;12.24;70.02
48015;BME280;33780;51.034;7.120;2023-03-14T02:09:22;98403.75;;;12.23;70.43
48015;BME280;33780;51.034;7.120;2023-03-14T02:11:48;98399.78;;;12.19;71.10
48015;BME280;33780;51.034;7.120;2023-03-14T02:14:41;98392.97;;;12.17;71.06
48015;BME280;33780;51.034;7.120;2023-03-14T02:17:11;98383.47;;;12.14;70.98
48015;BME280;33780;51.034;7.120;2023-03-14T02:22:18;98394.38;;;12.13;71.12
48015;BME280;33780;51.034;7.120;2023-03-14T02:24:55;98388.59;;;12.09;71.08
48015;BME280;33780;51.034;7.120;2023-03-14T02:27:23;98394.16;;;12.07;71.53
48015;BME280;33780;51.034;7.120;2023-03-14T02:30:05;98395.41;;;12.05;71.60
48015;BME280;33780;51.034;7.120;2023-03-14T02:32:34;98398.06;;;12.05;71.48
48015;BME280;33780;51.034;7.120;2023-03-14T02:35:05;98397.25;;;12.04;71.33
48015;BME280;33780;51.034;7.120;2023-03-14T02:37:36;98391.22;;;12.02;71.59
48015;BME280;33780;51.034;7.120;2023-03-14T02:40:03;98393.09;;;12.02;71.52
48015;BME280;33780;51.034;7.120;2023-03-14T02:42:30;98387.09;;;12.00;71.54
48015;BME280;33780;51.034;7.120;2023-03-14T02:45:25;98376.97;;;11.95;71.83
48015;BME280;33780;51.034;7.120;2023-03-14T02:47:51;98375.94;;;11.96;72.07
48015;BME280;33780;51.034;7.120;2023-03-14T02:50:21;98374.09;;;11.97;71.77
48015;BME280;33780;51.034;7.120;2023-03-14T02:52:48;98367.91;;;11.96;72.06
48015;BME280;33780;51.034;7.120;2023-03-14T02:55:13;98369.56;;;11.97;71.85
48015;BME280;33780;51.034;7.120;2023-03-14T02:57:39;98377.59;;;11.97;71.56
48015;BME280;33780;51.034;7.120;2023-03-14T03:00:04;98367.91;;;11.96;71.59
48015;BME280;33780;51.034;7.120;2023-03-14T03:02:30;98366.06;;;11.97;71.67
48015;BME280;33780;51.034;7.120;2023-03-14T03:04:56;98365.22;;;11.96;71.59
48015;BME280;33780;51.034;7.120;2023-03-14T03:07:21;98362.56;;;11.96;71.74
48015;BME280;33780;51.034;7.120;2023-03-14T03:09:47;98350.81;;;11.97;72.29
48015;BME280;33780;51.034;7.120;2023-03-14T03:12:12;98351.81;;;11.96;71.89
48015;BME280;33780;51.034;7.120;2023-03-14T03:14:37;98352.84;;;11.95;71.92
48015;BME280;33780;51.034;7.120;2023-03-14T03:17:04;98349.34;;;11.95;72.00
48015;BME280;33780;51.034;7.120;2023-03-14T03:19:30;98349.34;;;11.95;72.02
48015;BME280;33780;51.034;7.120;2023-03-14T03:21:55;98344.19;;;11.93;72.26
48015;BME280;33780;51.034;7.120;2023-03-14T03:24:20;98343.38;;;11.93;72.41
48015;BME280;33780;51.034;7.120;2023-03-14T03:26:46;98334.50;;;11.92;72.43
48015;BME280;33780;51.034;7.120;2023-03-14T03:29:11;98332.66;;;11.93;72.62
48015;BME280;33780;51.034;7.120;2023-03-14T03:31:37;98333.66;;;11.92;72.66
48015;BME280;33780;51.034;7.120;2023-03-14T03:34:03;98331.00;;;11.92;72.42
48015;BME280;33780;51.034;7.120;2023-03-14T03:36:28;98325.63;;;11.92;72.18
48015;BME280;33780;51.034;7.120;2023-03-14T03:38:53;98320.28;;;11.92;72.72
48015;BME280;33780;51.034;7.120;2023-03-14T03:41:19;98314.91;;;11.92;72.05
48015;BME280;33780;51.034;7.120;2023-03-14T03:43:44;98319.25;;;11.93;72.63
48015;BME280;33780;51.034;7.120;2023-03-14T03:46:09;98321.09;;;11.92;72.03
48015;BME280;33780;51.034;7.120;2023-03-14T03:48:35;98320.28;;;11.92;72.69
48015;BME280;33780;51.034;7.120;2023-03-14T03:51:00;98316.75;;;11.91;72.25
48015;BME280;33780;51.034;7.120;2023-03-14T03:53:26;98313.25;;;11.91;72.11
48015;BME280;33780;51.034;7.120;2023-03-14T03:55:51;98311.59;;;11.90;72.44
48015;BME280;33780;51.034;7.120;2023-03-14T03:58:16;98322.31;;;11.90;72.34
48015;BME280;33780;51.034;7.120;2023-03-14T04:00:42;98318.00;;;11.89;72.09
48015;BME280;33780;51.034;7.120;2023-03-14T04:03:07;98311.81;;;11.88;72.37
48015;BME280;33780;51.034;7.120;2023-03-14T04:05:32;98314.50;;;11.88;72.31
48015;BME280;33780;51.034;7.120;2023-03-14T04:07:59;98309.13;;;11.88;72.63
48015;BME280;33780;51.034;7.120;2023-03-14T04:10:24;98312.84;;;11.87;72.51
48015;BME280;33780;51.034;7.120;2023-03-14T04:12:50;98305.00;;;11.86;72.51
48015;BME280;33780;51.034;7.120;2023-03-14T04:15:15;98306.84;;;11.85;72.77
48015;BME280;33780;51.034;7.120;2023-03-14T04:17:40;98308.88;;;11.83;72.59
48015;BME280;33780;51.034;7.120;2023-03-14T04:20:07;98314.22;;;11.83;72.66
48015;BME280;33780;51.034;7.120;2023-03-14T04:22:35;98305.16;;;11.84;72.45
48015;BME280;33780;51.034;7.120;2023-03-14T04:25:01;98299.81;;;11.84;72.80
48015;BME280;33780;51.034;7.120;2023-03-14T04:27:28;98305.38;;;11.83;72.73
48015;BME280;33780;51.034;7.120;2023-03-14T04:29:53;98293.81;;;11.82;72.77
48015;BME280;33780;51.034;7.120;2023-03-14T04:32:19;98293.00;;;11.82;72.48
48015;BME280;33780;51.034;7.120;2023-03-14T04:34:44;98285.16;;;11.80;73.02
48015;BME280;33780;51.034;7.120;2023-03-14T04:37:10;98285.38;;;11.78;72.83
48015;BME280;33780;51.034;7.120;2023-03-14T04:39:35;98277.50;;;11.77;72.88
48015;BME280;33780;51.034;7.120;2023-03-14T04:42:00;98279.34;;;11.76;73.18
48015;BME280;33780;51.034;7.120;2023-03-14T04:44:26;98276.88;;;11.75;73.02
48015;BME280;33780;51.034;7.120;2023-03-14T04:46:51;98283.25;;;11.74;73.00
48015;BME280;33780;51.034;7.120;2023-03-14T04:49:16;98278.94;;;11.73;73.00
48015;BME280;33780;51.034;7.120;2023-03-14T04:51:41;98279.13;;;11.71;73.22
48015;BME280;33780;51.034;7.120;2023-03-14T04:54:07;98272.13;;;11.70;73.31
48015;BME280;33780;51.034;7.120;2023-03-14T04:56:33;98265.09;;;11.69;73.43
48015;BME280;33780;51.034;7.120;2023-03-14T04:58:58;98255.41;;;11.68;73.30
48015;BME280;33780;51.034;7.120;2023-03-14T05:01:23;98258.09;;;11.68;73.69
48015;BME280;33780;51.034;7.120;2023-03-14T05:03:49;98258.25;;;11.67;73.30
48015;BME280;33780;51.034;7.120;2023-03-14T05:06:14;98245.91;;;11.66;73.53
48015;BME280;33780;51.034;7.120;2023-03-14T05:08:39;98240.53;;;11.66;73.55
48015;BME280;33780;51.034;7.120;2023-03-14T05:11:05;98252.28;;;11.65;73.76
48015;BME280;33780;51.034;7.120;2023-03-14T05:13:30;98239.09;;;11.63;73.62
48015;BME280;33780;51.034;7.120;2023-03-14T05:16:04;98244.66;;;11.62;73.99
48015;BME280;33780;51.034;7.120;2023-03-14T05:18:29;98235.78;;;11.61;73.63
48015;BME280;33780;51.034;7.120;2023-03-14T05:20:54;98229.59;;;11.61;73.71
48015;BME280;33780;51.034;7.120;2023-03-14T05:23:20;98230.63;;;11.60;73.85
48015;BME280;33780;51.034;7.120;2023-03-14T05:25:45;98226.09;;;11.60;74.02
48015;BME280;33780;51.034;7.120;2023-03-14T05:28:10;98221.97;;;11.58;74.17
48015;BME280;33780;51.034;7.120;2023-03-14T05:30:39;98223.81;;;11.57;74.10
48015;BME280;33780;51.034;7.120;2023-03-14T05:33:04;98219.50;;;11.56;74.14
48015;BME280;33780;51.034;7.120;2023-03-14T05:35:30;98222.19;;;11.56;74.40
48015;BME280;33780;51.034;7.120;2023-03-14T05:37:55;98218.66;;;11.56;74.21
48015;BME280;33780;51.034;7.120;2023-03-14T05:40:20;98225.06;;;11.55;74.10
48015;BME280;33780;51.034;7.120;2023-03-14T05:42:46;98226.09;;;11.54;74.17
48015;BME280;33780;51.034;7.120;2023-03-14T05:45:11;98221.56;;;11.54;74.60
48015;BME280;33780;51.034;7.120;2023-03-14T05:47:36;98226.91;;;11.54;74.36
48015;BME280;33780;51.034;7.120;2023-03-14T05:50:02;98218.88;;;11.54;74.26
48015;BME280;33780;51.034;7.120;2023-03-14T05:52:27;98219.91;;;11.53;74.23
48015;BME280;33780;51.034;7.120;2023-03-14T05:54:52;98212.88;;;11.52;74.33
48015;BME280;33780;51.034;7.120;2023-03-14T05:57:17;98217.63;;;11.50;74.82
48015;BME280;33780;51.034;7.120;2023-03-14T05:59:43;98214.94;;;11.50;74.45
48015;BME280;33780;51.034;7.120;2023-03-14T06:02:08;98214.94;;;11.50;74.65
48015;BME280;33780;51.034;7.120;2023-03-14T06:04:33;98215.13;;;11.48;74.60
48015;BME280;33780;51.034;7.120;2023-03-14T06:06:58;98216.78;;;11.49;74.68
48015;BME280;33780;51.034;7.120;2023-03-14T06:09:24;98214.13;;;11.49;74.34
48015;BME280;33780;51.034;7.120;2023-03-14T06:11:49;98211.44;;;11.49;74.46
48015;BME280;33780;51.034;7.120;2023-03-14T06:14:15;98220.31;;;11.50;74.76
48015;BME280;33780;51.034;7.120;2023-03-14T06:16:40;98219.28;;;11.51;74.42
48015;BME280;33780;51.034;7.120;2023-03-14T06:19:05;98217.63;;;11.50;74.30
48015;BME280;33780;51.034;7.120;2023-03-14T06:21:31;98208.56;;;11.51;74.26
48015;BME280;33780;51.034;7.120;2023-03-14T06:23:56;98209.59;;;11.50;74.10
48015;BME280;33780;51.034;7.120;2023-03-14T06:26:21;98216.59;;;11.51;74.16
48015;BME280;33780;51.034;7.120;2023-03-14T06:28:48;98212.06;;;11.52;74.15
48015;BME280;33780;51.034;7.120;2023-03-14T06:31:13;98214.75;;;11.52;74.65
48015;BME280;33780;51.034;7.120;2023-03-14T06:33:38;98206.72;;;11.52;74.15
48015;BME280;33780;51.034;7.120;2023-03-14T06:36:04;98212.88;;;11.52;74.39
48015;BME280;33780;51.034;7.120;2023-03-14T06:38:29;98214.53;;;11.53;74.08
48015;BME280;33780;51.034;7.120;2023-03-14T06:40:54;98218.88;;;11.54;74.27
48015;BME280;33780;51.034;7.120;2023-03-14T06:43:20;98217.03;;;11.55;74.31
48015;BME280;33780;51.034;7.120;2023-03-14T06:45:45;98214.97;;;11.57;74.48
48015;BME280;33780;51.034;7.120;2023-03-14T06:48:10;98207.56;;;11.59;74.31
48015;BME280;33780;51.034;7.120;2023-03-14T06:50:36;98212.91;;;11.59;74.48
48015;BME280;33780;51.034;7.120;2023-03-14T06:53:01;98210.84;;;11.61;74.32
48015;BME280;33780;51.034;7.120;2023-03-14T06:55:26;98215.19;;;11.62;74.62
48015;BME280;33780;51.034;7.120;2023-03-14T06:57:51;98216.84;;;11.63;74.80
48015;BME280;33780;51.034;7.120;2023-03-14T07:00:17;98218.28;;;11.65;74.74
48015;BME280;33780;51.034;7.120;2023-03-14T07:02:42;98222.81;;;11.65;74.35
48015;BME280;33780;51.034;7.120;2023-03-14T07:05:08;98215.59;;;11.65;74.27
48015;BME280;33780;51.034;7.120;2023-03-14T07:07:35;98218.28;;;11.65;74.66
48015;BME280;33780;51.034;7.120;2023-03-14T07:10:01;98221.63;;;11.67;74.25
48015;BME280;33780;51.034;7.120;2023-03-14T07:12:26;98227.81;;;11.68;74.54
48015;BME280;33780;51.034;7.120;2023-03-14T07:14:51;98222.25;;;11.69;74.26
48015;BME280;33780;51.034;7.120;2023-03-14T07:17:16;98221.00;;;11.72;74.31
48015;BME280;33780;51.034;7.120;2023-03-14T07:19:42;98223.47;;;11.73;74.46
48015;BME280;33780;51.034;7.120;2023-03-14T07:22:07;98229.88;;;11.72;74.21
48015;BME280;33780;51.034;7.120;2023-03-14T07:24:32;98236.88;;;11.73;74.51
48015;BME280;33780;51.034;7.120;2023-03-14T07:26:58;98234.19;;;11.73;74.23
48015;BME280;33780;51.034;7.120;2023-03-14T07:29:23;98235.84;;;11.74;74.39
48015;BME280;33780;51.034;7.120;2023-03-14T07:31:48;98245.34;;;11.77;74.34
48015;BME280;33780;51.034;7.120;2023-03-14T07:34:14;98244.31;;;11.78;74.59
48015;BME280;33780;51.034;7.120;2023-03-14T07:36:39;98244.31;;;11.78;74.48
48015;BME280;33780;51.034;7.120;2023-03-14T07:39:05;98244.97;;;11.80;74.17
48015;BME280;33780;51.034;7.120;2023-03-14T07:41:30;98253.44;;;11.84;74.01
48015;BME280;33780;51.034;7.120;2023-03-14T07:43:59;98249.53;;;11.86;74.13
48015;BME280;33780;51.034;7.120;2023-03-14T07:46:24;98244.19;;;11.86;74.57
48015;BME280;33780;51.034;7.120;2023-03-14T07:48:49;98245.84;;;11.87;74.19
48015;BME280;33780;51.034;7.120;2023-03-14T07:51:15;98249.97;;;11.90;74.41
48015;BME280;33780;51.034;7.120;2023-03-14T07:53:40;98252.66;;;11.90;74.46
48015;BME280;33780;51.034;7.120;2023-03-14T07:56:06;98252.44;;;11.91;74.12
48015;BME280;33780;51.034;7.120;2023-03-14T07:58:31;98255.13;;;11.91;74.00
48015;BME280;33780;51.034;7.120;2023-03-14T08:00:58;98258.44;;;11.93;74.54
48015;BME280;33780;51.034;7.120;2023-03-14T08:03:24;98258.22;;;11.95;74.51
48015;BME280;33780;51.034;7.120;2023-03-14T08:05:50;98259.66;;;11.97;74.39
48015;BME280;33780;51.034;7.120;2023-03-14T08:08:18;98255.13;;;11.98;74.11
48015;BME280;33780;51.034;7.120;2023-03-14T08:10:44;98267.31;;;12.00;74.51
48015;BME280;33780;51.034;7.120;2023-03-14T08:13:10;98262.75;;;12.01;74.49
48015;BME280;33780;51.034;7.120;2023-03-14T08:15:35;98268.13;;;12.01;74.33
48015;BME280;33780;51.034;7.120;2023-03-14T08:18:02;98267.91;;;12.02;74.31
48015;BME280;33780;51.034;7.120;2023-03-14T08:20:29;98272.28;;;12.03;74.62
48015;BME280;33780;51.034;7.120;2023-03-14T08:22:58;98271.88;;;12.06;74.39
48015;BME280;33780;51.034;7.120;2023-03-14T08:25:25;98270.84;;;12.07;74.42
48015;BME280;33780;51.034;7.120;2023-03-14T08:27:51;98268.78;;;12.09;74.58
48015;BME280;33780;51.034;7.120;2023-03-14T08:30:17;98275.41;;;12.14;74.73
48015;BME280;33780;51.034;7.120;2023-03-14T08:32:43;98273.34;;;12.16;74.41
48015;BME280;33780;51.034;7.120;2023-03-14T08:35:09;98272.09;;;12.18;74.19
48015;BME280;33780;51.034;7.120;2023-03-14T08:37:35;98271.53;;;12.23;74.76
48015;BME280;33780;51.034;7.120;2023-03-14T08:40:02;98270.69;;;12.29;74.92
48015;BME280;33780;51.034;7.120;2023-03-14T08:42:34;98269.25;;;12.33;74.79
48015;BME280;33780;51.034;7.120;2023-03-14T08:44:59;98273.38;;;12.35;74.84
48015;BME280;33780;51.034;7.120;2023-03-14T08:47:25;98270.50;;;12.37;75.28
48015;BME280;33780;51.034;7.120;2023-03-14T08:49:50;98283.91;;;12.37;75.38
48015;BME280;33780;51.034;7.120;2023-03-14T08:52:16;98286.22;;;12.40;75.47
48015;BME280;33780;51.034;7.120;2023-03-14T08:54:43;98285.19;;;12.41;75.77
48015;BME280;33780;51.034;7.120;2023-03-14T08:57:09;98287.66;;;12.43;75.48
48015;BME280;33780;51.034;7.120;2023-03-14T08:59:35;98296.94;;;12.40;75.73
48015;BME280;33780;51.034;7.120;2023-03-14T09:02:01;98301.84;;;12.36;75.91
48015;BME280;33780;51.034;7.120;2023-03-14T09:04:28;98306.41;;;12.36;75.69
48015;BME280;33780;51.034;7.120;2023-03-14T09:06:54;98299.16;;;12.36;75.77
48015;BME280;33780;51.034;7.120;2023-03-14T09:09:19;98297.53;;;12.35;76.09
48015;BME280;33780;51.034;7.120;2023-03-14T09:11:44;98294.22;;;12.33;76.35
48015;BME280;33780;51.034;7.120;2023-03-14T09:14:10;98313.00;;;12.33;76.57
48015;BME280;33780;51.034;7.120;2023-03-14T09:16:35;98311.53;;;12.31;76.45
48015;BME280;33780;51.034;7.120;2023-03-14T09:19:00;98329.69;;;12.29;76.41
48015;BME280;33780;51.034;7.120;2023-03-14T09:21:26;98332.38;;;12.29;76.75
48015;BME280;33780;51.034;7.120;2023-03-14T09:23:52;98335.06;;;12.29;77.05
48015;BME280;33780;51.034;7.120;2023-03-14T09:26:18;98343.09;;;12.29;77.05
48015;BME280;33780;51.034;7.120;2023-03-14T09:28:43;98337.75;;;12.29;77.13
48015;BME280;33780;51.034;7.120;2023-03-14T09:31:10;98333.81;;;12.25;77.46
48015;BME280;33780;51.034;7.120;2023-03-14T09:33:41;98340.22;;;12.24;77.20
48015;BME280;33780;51.034;7.120;2023-03-14T09:36:09;98341.25;;;12.23;77.28
48015;BME280;33780;51.034;7.120;2023-03-14T09:38:37;98351.31;;;12.21;77.61
48015;BME280;33780;51.034;7.120;2023-03-14T09:41:11;98347.63;;;12.22;77.29
48015;BME280;33780;51.034;7.120;2023-03-14T09:43:38;98356.66;;;12.21;77.69
48015;BME280;33780;51.034;7.120;2023-03-14T09:46:05;98363.06;;;12.20;77.48
48015;BME280;33780;51.034;7.120;2023-03-14T09:48:35;98405.34;;;12.18;77.58
48015;BME280;33780;51.034;7.120;2023-03-14T09:51:11;98439.78;;;12.14;77.47
48015;BME280;33780;51.034;7.120;2023-03-14T09:53:43;98455.94;;;11.93;76.22
48015;BME280;33780;51.034;7.120;2023-03-14T09:56:13;98478.09;;;11.80;76.03
48015;BME280;33780;51.034;7.120;2023-03-14T09:58:41;98485.81;;;11.68;75.10
48015;BME280;33780;51.034;7.120;2023-03-14T10:01:10;98510.44;;;11.57;74.91
48015;BME280;33780;51.034;7.120;2023-03-14T10:03:36;98519.63;;;11.48;74.98
48015;BME280;33780;51.034;7.120;2023-03-14T10:06:08;98529.06;;;11.44;75.27
48015;BME280;33780;51.034;7.120;2023-03-14T10:08:39;98532.91;;;11.35;73.45
48015;BME280;33780;51.034;7.120;2023-03-14T10:11:05;98550.91;;;11.26;73.50
48015;BME280;33780;51.034;7.120;2023-03-14T10:15:07;98566.56;;;11.08;74.61
48015;BME280;33780;51.034;7.120;2023-03-14T10:17:46;98566.31;;;11.03;74.39
48015;BME280;33780;51.034;7.120;2023-03-14T10:20:39;98577.19;;;11.01;74.31
48015;BME280;33780;51.034;7.120;2023-03-14T10:25:40;98603.13;;;11.01;75.28
48015;BME280;33780;51.034;7.120;2023-03-14T10:28:23;98608.22;;;10.96;74.44
48015;BME280;33780;51.034;7.120;2023-03-14T10:30:49;98625.94;;;10.97;74.90
48015;BME280;33780;51.034;7.120;2023-03-14T10:35:53;98637.19;;;10.92;74.89
48015;BME280;33780;51.034;7.120;2023-03-14T10:38:19;98662.56;;;10.81;73.01
48015;BME280;33780;51.034;7.120;2023-03-14T10:40:50;98676.03;;;10.73;74.69
48015;BME280;33780;51.034;7.120;2023-03-14T10:43:49;98683.13;;;10.66;74.56
48015;BME280;33780;51.034;7.120;2023-03-14T10:46:17;98687.19;;;10.62;74.75
48015;BME280;33780;51.034;7.120;2023-03-14T10:48:43;98696.09;;;10.54;74.94
48015;BME280;33780;51.034;7.120;2023-03-14T10:53:48;98712.50;;;10.51;74.86
48015;BME280;33780;51.034;7.120;2023-03-14T10:56:15;98719.69;;;10.51;74.67
48015;BME280;33780;51.034;7.120;2023-03-14T10:58:43;98721.38;;;10.52;75.27
48015;BME280;33780;51.034;7.120;2023-03-14T11:07:14;98739.34;;;10.58;75.06
48015;BME280;33780;51.034;7.120;2023-03-14T11:09:49;98754.06;;;10.62;75.04
48015;BME280;33780;51.034;7.120;2023-03-14T11:14:58;98751.19;;;10.64;74.82
48015;BME280;33780;51.034;7.120;2023-03-14T11:17:59;98762.25;;;10.61;74.97
48015;BME280;33780;51.034;7.120;2023-03-14T11:20:41;98762.72;;;10.64;74.88
48015;BME280;33780;51.034;7.120;2023-03-14T11:23:21;98758.03;;;10.66;74.84
48015;BME280;33780;51.034;7.120;2023-03-14T11:28:22;98760.34;;;10.69;74.75
48015;BME280;33780;51.034;7.120;2023-03-14T11:31:42;98771.03;;;10.69;75.14
48015;BME280;33780;51.034;7.120;2023-03-14T11:34:17;98793.34;;;10.62;74.42
48015;BME280;33780;51.034;7.120;2023-03-14T11:39:19;98823.72;;;10.46;75.08
48015;BME280;33780;51.034;7.120;2023-03-14T11:41:47;98836.63;;;10.42;74.73
48015;BME280;33780;51.034;7.120;2023-03-14T11:44:25;98842.81;;;10.35;74.01
48015;BME280;33780;51.034;7.120;2023-03-14T11:46:57;98841.34;;;10.32;74.61
48015;BME280;33780;51.034;7.120;2023-03-14T11:49:45;98860.22;;;10.31;74.09
48015;BME280;33780;51.034;7.120;2023-03-14T11:52:29;98863.63;;;10.24;73.41
48015;BME280;33780;51.034;7.120;2023-03-14T11:55:12;98868.47;;;10.13;74.69
48015;BME280;33780;51.034;7.120;2023-03-14T11:57:40;98880.34;;;10.10;74.49
48015;BME280;33780;51.034;7.120;2023-03-14T12:00:22;98880.72;;;10.07;74.75
48015;BME280;33780;51.034;7.120;2023-03-14T12:03:02;98909.09;;;10.00;73.98
48015;BME280;33780;51.034;7.120;2023-03-14T12:13:53;98951.53;;;10.03;71.55
48015;BME280;33780;51.034;7.120;2023-03-14T12:16:27;98960.53;;;10.02;72.71
48015;BME280;33780;51.034;7.120;2023-03-14T12:18:54;98979.59;;;9.99;70.89
48015;BME280;33780;51.034;7.120;2023-03-14T12:21:20;98990.97;;;9.93;72.08
48015;BME280;33780;51.034;7.120;2023-03-14T12:23:55;99009.03;;;9.91;72.01
48015;BME280;33780;51.034;7.120;2023-03-14T12:26:27;99004.34;;;9.93;72.14
48015;BME280;33780;51.034;7.120;2023-03-14T12:34:26;99030.56;;;9.81;71.18
48015;BME280;33780;51.034;7.120;2023-03-14T12:39:50;99046.94;;;9.78;71.57
48015;BME280;33780;51.034;7.120;2023-03-14T12:48:01;99069.81;;;9.81;71.04
48015;BME280;33780;51.034;7.120;2023-03-14T12:50:35;99084.00;;;9.81;71.50
48015;BME280;33780;51.034;7.120;2023-03-14T12:55:46;99099.53;;;9.78;71.68
48015;BME280;33780;51.034;7.120;2023-03-14T12:58:32;99108.53;;;9.77;70.65
48015;BME280;33780;51.034;7.120;2023-03-14T13:01:01;99120.06;;;9.77;71.04
48015;BME280;33780;51.034;7.120;2023-03-14T13:03:39;99116.88;;;9.82;71.73
48015;BME280;33780;51.034;7.120;2023-03-14T13:06:09;99138.59;;;9.87;70.73
48015;BME280;33780;51.034;7.120;2023-03-14T13:08:45;99137.28;;;9.91;70.27
48015;BME280;33780;51.034;7.120;2023-03-14T13:11:16;99142.94;;;9.96;69.59
48015;BME280;33780;51.034;7.120;2023-03-14T13:13:52;99149.47;;;10.10;70.34
48015;BME280;33780;51.034;7.120;2023-03-14T13:16:21;99164.03;;;10.23;69.97
48015;BME280;33780;51.034;7.120;2023-03-14T13:19:03;99167.69;;;10.22;68.67
48015;BME280;33780;51.034;7.120;2023-03-14T13:21:34;99164.53;;;10.27;70.49
48015;BME280;33780;51.034;7.120;2023-03-14T13:26:41;99169.22;;;10.25;68.28
48015;BME280;33780;51.034;7.120;2023-03-14T13:29:24;99170.53;;;10.21;69.10
48015;BME280;33780;51.034;7.120;2023-03-14T13:31:52;99187.41;;;10.21;69.23
48015;BME280;33780;51.034;7.120;2023-03-14T13:34:19;99189.38;;;10.19;69.04
48015;BME280;33780;51.034;7.120;2023-03-14T13:36:45;99191.91;;;10.21;69.64
48015;BME280;33780;51.034;7.120;2023-03-14T13:39:17;99198.09;;;10.21;69.21
48015;BME280;33780;51.034;7.120;2023-03-14T13:41:43;99216.50;;;10.24;69.63
48015;BME280;33780;51.034;7.120;2023-03-14T13:44:14;99228.69;;;10.27;69.29
48015;BME280;33780;51.034;7.120;2023-03-14T13:46:40;99234.38;;;10.24;68.76
48015;BME280;33780;51.034;7.120;2023-03-14T13:49:10;99251.03;;;10.18;67.78
48015;BME280;33780;51.034;7.120;2023-03-14T13:51:38;99260.22;;;10.07;65.52
48015;BME280;33780;51.034;7.120;2023-03-14T13:54:16;99275.56;;;9.97;66.87
48015;BME280;33780;51.034;7.120;2023-03-14T13:56:44;99280.56;;;9.92;67.27
48015;BME280;33780;51.034;7.120;2023-03-14T13:59:27;99281.03;;;9.87;66.96
48015;BME280;33780;51.034;7.120;2023-03-14T14:01:53;99288.88;;;9.81;65.60
48015;BME280;33780;51.034;7.120;2023-03-14T14:04:21;99291.97;;;9.60;64.22
48015;BME280;33780;51.034;7.120;2023-03-14T14:06:54;99299.97;;;9.60;65.66